Time;durP1;ratioP1;P1;durP2;ratioP2;P2;SDS_P1;SDS_P2;PMS_P1;PMS_P2;Temp;Humidity;BMP_temperature;BMP_pressure;BME280_temperature;BME280_humidity;BME280_pressure;Samples;Min_cycle;Max_cycle;Signal;HPM_P1;HPM_P2
2022/05/23 08:34:47;;;;;;;9.48;5.18;;;20.00;99.90;;;;;;5126751;27;20142;-80
2022/05/23 08:37:14;;;;;;;11.98;4.90;;;19.20;99.90;;;;;;5105581;27;20093;-79
2022/05/23 08:40:46;;;;;;;11.77;6.00;;;19.20;99.90;;;;;;5097318;27;20126;-48
2022/05/23 08:43:20;;;;;;;6.07;4.80;;;19.40;99.90;;;;;;5048854;27;20052;-52
2022/05/23 08:45:50;;;;;;;8.60;5.88;;;19.50;99.90;;;;;;5021604;28;20770;-49
2022/05/23 08:48:42;;;;;;;8.25;4.80;;;19.70;99.90;;;;;;4981382;28;20042;-52
2022/05/23 08:51:20;;;;;;;9.18;5.25;;;19.90;99.90;;;;;;5036714;28;20605;-53
2022/05/23 08:53:55;;;;;;;8.32;4.97;;;20.10;99.90;;;;;;5055683;28;20070;-54
2022/05/23 08:56:32;;;;;;;8.25;4.82;;;20.10;99.90;;;;;;5062564;28;20056;-54
2022/05/23 08:59:02;;;;;;;9.13;5.72;;;20.20;99.90;;;;;;5051881;28;20037;-51
2022/05/23 09:01:44;;;;;;;8.52;5.43;;;20.30;99.90;;;;;;5063306;28;20040;-47
2022/05/23 09:04:18;;;;;;;7.55;5.53;;;20.30;99.90;;;;;;5065247;28;20594;-48
2022/05/23 09:06:49;;;;;;;8.93;5.55;;;20.40;99.90;;;;;;5066617;28;20176;-47
2022/05/23 09:09:21;;;;;;;10.15;5.57;;;20.40;99.90;;;;;;5062776;28;20575;-52
2022/05/23 09:11:54;;;;;;;12.05;5.32;;;20.50;99.90;;;;;;5059869;28;20072;-52
2022/05/23 09:14:20;;;;;;;7.60;5.82;;;20.60;99.90;;;;;;5058053;28;20512;-51
2022/05/23 09:16:49;;;;;;;7.68;5.55;;;20.80;99.90;;;;;;5057557;28;20079;-49
2022/05/23 09:19:39;;;;;;;11.70;6.70;;;21.00;99.90;;;;;;5060063;28;20451;-52
2022/05/23 09:22:19;;;;;;;7.30;6.00;;;21.30;99.90;;;;;;5059771;28;20400;-53
2022/05/23 09:24:52;;;;;;;10.02;5.60;;;21.40;99.90;;;;;;5060989;28;20037;-50
2022/05/23 09:27:53;;;;;;;7.00;5.80;;;21.40;99.30;;;;;;5063131;28;20652;-49
2022/05/23 09:30:26;;;;;;;8.38;6.30;;;21.40;98.90;;;;;;5071066;28;20044;-44
2022/05/23 09:32:55;;;;;;;10.55;6.63;;;21.40;99.10;;;;;;5056426;28;20037;-46
2022/05/23 09:35:28;;;;;;;12.77;6.22;;;21.60;99.40;;;;;;5055291;28;20044;-49
2022/05/23 09:38:17;;;;;;;8.50;5.90;;;21.70;99.00;;;;;;5061843;28;20492;-51
2022/05/23 09:40:44;;;;;;;11.45;5.93;;;21.80;98.70;;;;;;5055928;28;20416;-49
2022/05/23 09:49:23;;;;;;;7.93;6.55;;;21.80;99.60;;;;;;5057421;28;20528;-53
2022/05/23 09:52:03;;;;;;;8.18;5.75;;;21.80;98.80;;;;;;5047518;28;20517;-49
2022/05/23 09:54:38;;;;;;;7.82;5.80;;;21.90;99.30;;;;;;5053453;28;20217;-54
2022/05/23 10:02:30;;;;;;;7.78;6.05;;;22.20;98.70;;;;;;5647290;23;20062;-80
2022/05/23 10:04:56;;;;;;;8.68;4.85;;;22.30;97.90;;;;;;5003533;28;20061;-82
2022/05/23 10:07:34;;;;;;;6.75;5.72;;;22.30;98.10;;;;;;5006333;28;20149;-82
2022/05/23 10:10:04;;;;;;;7.22;5.00;;;22.50;98.00;;;;;;5017488;28;20040;-81
2022/05/23 10:12:39;;;;;;;8.32;5.55;;;22.60;98.10;;;;;;5017303;28;20104;-82
2022/05/23 10:15:24;;;;;;;10.65;5.90;;;22.80;97.30;;;;;;5005003;28;20076;-81
2022/05/23 10:18:03;;;;;;;8.88;6.40;;;22.90;97.30;;;;;;5003044;23;20042;-56
2022/05/23 10:20:35;;;;;;;8.75;4.70;;;23.40;97.50;;;;;;4965259;28;20050;-57
2022/05/23 10:23:04;;;;;;;8.27;4.75;;;23.70;96.70;;;;;;4957250;28;20038;-58
2022/05/23 10:25:40;;;;;;;10.02;5.30;;;23.90;96.20;;;;;;4952680;28;20473;-61
2022/05/23 10:28:14;;;;;;;8.23;5.07;;;23.80;95.10;;;;;;4953496;28;20042;-59
2022/05/23 10:30:55;;;;;;;10.10;4.50;;;23.90;95.30;;;;;;4958048;28;20046;-57
2022/05/23 10:33:27;;;;;;;9.30;4.60;;;24.00;94.90;;;;;;4961086;28;20046;-61
2022/05/23 10:36:20;;;;;;;5.53;4.53;;;23.90;94.90;;;;;;4956047;28;20421;-58
2022/05/23 10:42:07;;;;;;;5.38;3.90;;;24.10;94.90;;;;;;4958318;28;20302;-61
2022/05/23 10:44:59;;;;;;;5.65;4.20;;;24.40;94.20;;;;;;4959392;28;20040;-61
2022/05/23 10:47:25;;;;;;;5.82;3.72;;;24.80;94.30;;;;;;4949473;28;20053;-60
2022/05/23 10:50:04;;;;;;;13.70;4.72;;;25.10;93.70;;;;;;4958250;28;21015;-60
2022/05/23 10:52:46;;;;;;;8.10;4.53;;;25.20;92.70;;;;;;4965057;28;20574;-63
2022/05/23 10:55:15;;;;;;;6.75;3.33;;;25.20;91.00;;;;;;4956471;28;20046;-59
2022/05/23 10:58:12;;;;;;;7.18;4.13;;;25.20;91.80;;;;;;4962154;28;20055;-58
2022/05/23 11:00:49;;;;;;;7.20;4.07;;;25.10;91.50;;;;;;4978345;28;20054;-62
2022/05/23 11:03:35;;;;;;;5.90;3.67;;;25.20;91.80;;;;;;4963194;28;20043;-61
2022/05/23 11:06:21;;;;;;;5.30;4.13;;;25.30;89.10;;;;;;4962857;28;20132;-64
2022/05/23 11:09:13;;;;;;;6.55;3.70;;;25.40;89.10;;;;;;4956698;28;20046;-61
2022/05/23 11:11:51;;;;;;;6.35;3.33;;;25.40;89.40;;;;;;4961274;28;20039;-63
2022/05/23 11:14:41;;;;;;;4.10;2.50;;;25.60;87.70;;;;;;4962108;28;20043;-62
2022/05/23 11:17:09;;;;;;;7.63;2.70;;;25.60;86.60;;;;;;4963774;28;20038;-60
2022/05/23 11:19:46;;;;;;;5.65;2.20;;;25.60;84.40;;;;;;4959888;28;20055;-63
2022/05/23 11:22:23;;;;;;;7.45;2.38;;;25.20;83.30;;;;;;4960070;28;20046;-62
2022/05/23 11:25:20;;;;;;;5.88;2.70;;;25.20;83.70;;;;;;4959977;28;20426;-65
2022/05/23 11:33:46;;;;;;;4.38;3.00;;;24.90;81.60;;;;;;4962677;28;20053;-64
2022/05/23 11:36:24;;;;;;;6.65;2.92;;;25.30;83.50;;;;;;4955932;28;20205;-62
2022/05/23 11:38:51;;;;;;;4.22;2.30;;;25.50;82.80;;;;;;4956783;28;20089;-64
2022/05/23 11:41:39;;;;;;;4.65;2.33;;;25.80;82.50;;;;;;4956619;28;20445;-63
2022/05/23 11:44:43;;;;;;;3.35;1.98;;;26.00;78.00;;;;;;4959715;28;20047;-62
2022/05/23 11:47:21;;;;;;;3.80;1.75;;;26.10;76.10;;;;;;4957394;28;20109;-60
2022/05/23 11:50:17;;;;;;;3.22;2.17;;;25.90;78.30;;;;;;4955734;28;20117;-61
2022/05/23 11:52:48;;;;;;;3.72;2.10;;;25.90;75.90;;;;;;4948475;28;20055;-64
2022/05/23 11:55:52;;;;;;;4.53;2.13;;;25.90;76.10;;;;;;4953583;28;20421;-59
2022/05/23 11:58:39;;;;;;;5.77;2.30;;;26.00;75.80;;;;;;4958021;28;20045;-58
2022/05/23 12:01:15;;;;;;;3.42;1.73;;;26.00;75.20;;;;;;4953754;28;20049;-60
2022/05/23 12:03:50;;;;;;;4.50;2.15;;;26.10;76.30;;;;;;4965199;28;20038;-60
2022/05/23 12:06:23;;;;;;;3.70;2.22;;;26.30;77.00;;;;;;4961407;28;20038;-61
2022/05/23 12:08:57;;;;;;;;;;;26.20;76.00;;;;;;4954831;28;20046;-62
2022/05/23 12:11:25;;;;;;;4.47;2.40;;;26.10;74.70;;;;;;4953679;28;19947;-60
2022/05/23 12:13:58;;;;;;;4.05;1.98;;;26.00;73.50;;;;;;4951994;28;20646;-59
2022/05/23 12:16:29;;;;;;;5.07;2.20;;;26.00;74.60;;;;;;4964689;28;20401;-57
2022/05/23 12:19:21;;;;;;;6.13;2.78;;;25.90;74.50;;;;;;4952925;28;20051;-59
2022/05/23 12:21:48;;;;;;;6.18;3.00;;;25.90;70.70;;;;;;4936786;28;20046;-59
2022/05/23 12:24:23;;;;;;;7.07;2.42;;;25.70;73.00;;;;;;4955864;28;20481;-57
2022/05/23 12:26:52;;;;;;;4.38;2.17;;;25.60;75.50;;;;;;4957970;28;20654;-58
2022/05/23 12:29:24;;;;;;;4.88;2.45;;;25.50;74.90;;;;;;4953404;28;20043;-58
2022/05/23 12:32:08;;;;;;;6.10;2.63;;;25.30;72.70;;;;;;4956938;28;20043;-58
2022/05/23 12:34:40;;;;;;;4.47;2.75;;;25.30;73.40;;;;;;4955867;28;20069;-58
2022/05/23 12:37:11;;;;;;;5.70;2.83;;;25.10;73.90;;;;;;4956939;28;20053;-57
2022/05/23 12:40:01;;;;;;;4.63;2.50;;;25.10;75.00;;;;;;4965915;28;20893;-57
2022/05/23 12:42:56;;;;;;;6.18;2.40;;;25.00;75.60;;;;;;4954085;28;20043;-58
2022/05/23 12:45:45;;;;;;;4.00;2.42;;;24.90;77.30;;;;;;4950076;28;20134;-58
2022/05/23 12:48:37;;;;;;;4.60;2.40;;;24.60;74.50;;;;;;4960604;28;20042;-58
2022/05/23 12:51:25;;;;;;;4.63;2.50;;;24.60;76.10;;;;;;4956512;28;20573;-58
2022/05/23 12:54:16;;;;;;;8.55;2.40;;;24.60;78.00;;;;;;4961479;28;20139;-57
2022/05/23 12:57:26;;;;;;;5.88;2.40;;;24.50;78.30;;;;;;4953141;28;20054;-59
2022/05/23 12:59:59;;;;;;;5.10;2.47;;;24.20;75.90;;;;;;4953163;28;20092;-58
2022/05/23 13:02:41;;;;;;;5.47;2.27;;;24.10;77.70;;;;;;4957952;28;20047;-58
2022/05/23 13:05:35;;;;;;;8.27;2.90;;;24.10;78.70;;;;;;4955599;28;20110;-58
2022/05/23 13:08:06;;;;;;;4.55;2.65;;;24.10;79.60;;;;;;4969104;28;20151;-60
2022/05/23 13:10:33;;;;;;;8.43;3.13;;;24.10;80.00;;;;;;4954798;28;20051;-60
2022/05/23 13:13:20;;;;;;;4.65;2.60;;;24.00;80.70;;;;;;4954707;28;20048;-59
2022/05/23 13:15:45;;;;;;;4.47;2.90;;;24.00;82.80;;;;;;4958722;28;20038;-59
2022/05/23 13:23:45;;;;;;;6.03;3.40;;;23.50;87.20;;;;;;4968142;28;20101;-58
2022/05/23 13:26:12;;;;;;;4.45;3.38;;;23.20;90.00;;;;;;4969460;28;20049;-58
2022/05/23 13:28:47;;;;;;;6.15;3.83;;;23.10;91.00;;;;;;4961824;28;20046;-58
2022/05/23 13:31:23;;;;;;;6.20;4.30;;;23.00;92.30;;;;;;4960753;28;20031;-58
2022/05/23 13:33:50;;;;;;;5.78;4.10;;;22.90;94.00;;;;;;4973549;28;20043;-59
2022/05/23 13:36:16;;;;;;;4.65;3.78;;;22.80;94.80;;;;;;4956780;28;20466;-58
2022/05/23 13:38:59;;;;;;;8.93;4.43;;;22.70;95.50;;;;;;4960449;28;20133;-61
2022/05/23 13:41:27;;;;;;;6.03;4.97;;;22.80;97.30;;;;;;4968610;28;20078;-61
2022/05/23 13:43:53;;;;;;;7.63;4.72;;;22.80;97.50;;;;;;4957257;28;20031;-59
2022/05/23 13:46:40;;;;;;;8.45;4.60;;;22.80;97.80;;;;;;4940262;28;20405;-59
2022/05/23 13:49:18;;;;;;;7.00;4.30;;;22.90;98.60;;;;;;4957144;28;20051;-59
2022/05/23 13:51:51;;;;;;;8.25;4.28;;;22.90;98.40;;;;;;4972715;28;20047;-59
2022/05/23 13:54:17;;;;;;;6.07;4.22;;;23.00;98.50;;;;;;4961168;28;20038;-60
2022/05/23 13:56:53;;;;;;;5.22;3.55;;;23.00;98.20;;;;;;4957592;28;20035;-59
2022/05/23 13:59:23;;;;;;;6.70;3.97;;;23.00;98.20;;;;;;4968661;28;20070;-60
2022/05/23 14:01:57;;;;;;;7.85;4.63;;;23.10;98.30;;;;;;4972011;28;20497;-61
2022/05/23 14:04:27;;;;;;;7.55;3.78;;;23.20;97.90;;;;;;4956223;28;20146;-59
2022/05/23 14:06:59;;;;;;;7.65;4.10;;;23.20;98.00;;;;;;4960544;28;20039;-61
2022/05/23 14:09:25;;;;;;;7.20;4.75;;;23.20;98.00;;;;;;4968115;28;20058;-61
2022/05/23 14:11:54;;;;;;;7.50;4.85;;;23.20;98.00;;;;;;4967072;28;20497;-64
2022/05/23 14:14:27;;;;;;;6.15;4.20;;;23.20;98.10;;;;;;4964431;28;20102;-63
2022/05/23 14:16:58;;;;;;;7.45;4.53;;;23.20;97.50;;;;;;4981116;28;20051;-61
2022/05/23 14:19:43;;;;;;;5.43;4.25;;;23.10;97.10;;;;;;4968571;28;20109;-61
2022/05/23 14:22:21;;;;;;;6.88;4.68;;;23.10;97.00;;;;;;4967849;28;20031;-60
2022/05/23 14:24:50;;;;;;;6.32;4.00;;;23.10;97.20;;;;;;4969150;28;20042;-61
2022/05/23 14:27:34;;;;;;;6.72;4.18;;;23.10;97.40;;;;;;4950968;28;20030;-61
2022/05/23 14:30:24;;;;;;;5.25;4.20;;;23.10;96.90;;;;;;4968273;28;20486;-61
2022/05/23 14:32:53;;;;;;;10.90;4.88;;;23.00;97.30;;;;;;4962257;28;20042;-61
2022/05/23 14:35:22;;;;;;;7.75;5.32;;;23.00;97.80;;;;;;4968360;28;20050;-61
2022/05/23 14:37:51;;;;;;;5.47;4.57;;;22.90;97.90;;;;;;4969085;28;20047;-62
2022/05/23 14:40:36;;;;;;;9.45;5.25;;;22.90;97.60;;;;;;4947613;28;20047;-62
2022/05/23 14:43:07;;;;;;;6.53;4.82;;;22.90;97.70;;;;;;4963351;28;20039;-59
2022/05/23 14:45:33;;;;;;;8.10;5.10;;;22.90;97.90;;;;;;4965718;28;20053;-62
2022/05/23 14:48:05;;;;;;;5.95;4.63;;;22.90;98.00;;;;;;4966641;28;20045;-63
2022/05/23 14:50:41;;;;;;;6.57;4.15;;;23.00;98.00;;;;;;4963765;28;20042;-61
2022/05/23 14:55:55;;;;;;;6.00;5.07;;;23.00;98.20;;;;;;4970126;28;20521;-64
2022/05/23 15:01:19;;;;;;;6.18;4.90;;;22.90;98.00;;;;;;4966304;28;20529;-60
2022/05/23 15:03:48;;;;;;;6.88;4.88;;;22.80;97.90;;;;;;4988938;28;20514;-60
2022/05/23 15:06:15;;;;;;;5.35;4.28;;;22.70;98.20;;;;;;4970988;28;20046;-60
2022/05/23 15:08:42;;;;;;;6.35;4.72;;;22.70;98.30;;;;;;4957258;28;20050;-60
2022/05/23 15:11:25;;;;;;;7.53;4.57;;;22.60;98.30;;;;;;4962132;28;20065;-62
2022/05/23 15:13:51;;;;;;;8.03;4.23;;;22.60;98.70;;;;;;4960645;28;20042;-64
2022/05/23 15:16:26;;;;;;;7.88;4.78;;;22.50;99.00;;;;;;4959119;28;20050;-60
2022/05/23 15:18:51;;;;;;;6.38;5.32;;;22.40;99.60;;;;;;4954785;28;20541;-61
2022/05/23 15:21:17;;;;;;;6.95;5.13;;;22.20;99.90;;;;;;4964612;28;20050;-61
2022/05/23 15:23:43;;;;;;;6.75;5.35;;;22.10;99.90;;;;;;4971024;28;20038;-60
2022/05/23 15:26:20;;;;;;;7.00;5.65;;;22.00;99.90;;;;;;4969804;28;20043;-63
2022/05/23 15:28:50;;;;;;;17.42;15.50;;;21.80;99.90;;;;;;4955365;28;20379;-58
2022/05/23 15:31:18;;;;;;;17.52;15.82;;;21.20;99.90;;;;;;4955912;28;20039;-61
2022/05/23 15:33:44;;;;;;;23.98;21.60;;;20.90;99.90;;;;;;4959880;28;20521;-61
2022/05/23 15:36:10;;;;;;;27.70;24.73;;;20.50;99.90;;;;;;4959361;28;20498;-56
2022/05/23 15:38:36;;;;;;;27.40;24.67;;;20.10;99.90;;;;;;4954573;28;20035;-61
2022/05/23 15:41:03;;;;;;;27.90;25.10;;;20.00;99.90;;;;;;4962171;28;20034;-54
2022/05/23 15:43:31;;;;;;;30.85;27.55;;;19.80;99.90;;;;;;4960534;28;20070;-59
2022/05/23 15:45:57;;;;;;;30.92;27.73;;;19.70;99.90;;;;;;4958889;28;20041;-59
2022/05/23 15:48:23;;;;;;;30.02;27.00;;;19.60;99.90;;;;;;4955106;28;20043;-61
2022/05/23 15:50:50;;;;;;;31.92;28.30;;;19.40;99.90;;;;;;4957138;28;20039;-56
2022/05/23 15:53:17;;;;;;;33.70;30.15;;;19.10;99.90;;;;;;4971321;28;20042;-63
2022/05/23 15:55:49;;;;;;;32.38;29.00;;;19.10;99.90;;;;;;4951604;28;20374;-60
2022/05/23 15:58:16;;;;;;;34.25;30.88;;;19.00;99.90;;;;;;4950490;28;20123;-63
2022/05/23 16:00:42;;;;;;;34.53;31.13;;;19.00;99.90;;;;;;4959043;28;20051;-60
2022/05/23 16:03:08;;;;;;;34.95;31.30;;;18.90;99.90;;;;;;4959135;28;20050;-59
2022/05/23 16:05:36;;;;;;;37.47;31.02;;;18.90;99.90;;;;;;4954429;28;20041;-60
2022/05/23 16:08:03;;;;;;;37.83;32.28;;;18.80;99.90;;;;;;4957978;28;20058;-61
2022/05/23 16:10:29;;;;;;;36.63;32.90;;;18.70;99.90;;;;;;4972317;28;20695;-59
2022/05/23 16:13:05;;;;;;;38.58;34.58;;;18.40;99.90;;;;;;4962020;28;20038;-56
2022/05/23 16:15:31;;;;;;;38.03;34.05;;;18.10;99.90;;;;;;4962357;28;20156;-56
2022/05/23 16:17:58;;;;;;;37.65;32.90;;;18.10;99.90;;;;;;4983182;23;20070;-60
2022/05/23 16:20:26;;;;;;;36.92;32.20;;;18.00;99.90;;;;;;4976398;28;20064;-59
2022/05/23 16:22:53;;;;;;;38.58;32.53;;;17.90;99.90;;;;;;4980307;28;20053;-59
2022/05/23 16:25:19;;;;;;;39.15;34.85;;;17.90;99.90;;;;;;4970772;28;20425;-58
2022/05/23 16:27:45;;;;;;;41.67;36.97;;;17.80;99.90;;;;;;4984982;28;20039;-62
2022/05/23 16:30:14;;;;;;;39.53;34.00;;;17.80;99.90;;;;;;4989064;28;20097;-61
2022/05/23 16:38:10;;;;;;;37.67;33.60;;;17.60;99.90;;;;;;4985328;28;20050;-61
2022/05/23 16:40:37;;;;;;;41.70;37.30;;;17.60;99.90;;;;;;4976075;28;20066;-59
2022/05/23 16:43:03;;;;;;;38.85;34.70;;;17.50;99.90;;;;;;4981775;28;20061;-59
2022/05/23 16:45:28;;;;;;;40.72;35.85;;;17.30;99.90;;;;;;4962112;28;20039;-57
2022/05/23 16:47:54;;;;;;;37.17;33.10;;;17.30;99.90;;;;;;4983403;28;20046;-59
2022/05/23 16:50:20;;;;;;;37.20;33.00;;;17.30;99.90;;;;;;4979732;28;20042;-59
2022/05/23 16:52:45;;;;;;;36.88;32.80;;;17.30;99.90;;;;;;4985743;28;20065;-59
2022/05/23 16:55:13;;;;;;;37.75;32.60;;;17.20;99.90;;;;;;4976274;28;20073;-59
2022/05/23 16:57:38;;;;;;;37.38;31.70;;;17.30;99.90;;;;;;4969258;28;20042;-59
2022/05/23 17:00:05;;;;;;;34.08;30.45;;;17.20;99.90;;;;;;4972739;28;20112;-58
2022/05/23 17:02:31;;;;;;;38.63;32.35;;;17.20;99.90;;;;;;4979756;28;20041;-57
2022/05/23 17:04:56;;;;;;;36.78;29.80;;;17.20;99.90;;;;;;4978349;28;20049;-58
2022/05/23 17:07:22;;;;;;;35.70;30.88;;;17.10;99.90;;;;;;4975951;28;20085;-57
2022/05/23 17:09:48;;;;;;;39.55;34.63;;;17.10;99.90;;;;;;4978412;28;20080;-58
2022/05/23 17:12:14;;;;;;;40.92;33.42;;;17.00;99.90;;;;;;4982233;28;20066;-58
2022/05/23 17:14:40;;;;;;;35.15;31.15;;;17.00;99.90;;;;;;4971492;28;20474;-59
2022/05/23 17:17:06;;;;;;;39.15;32.85;;;16.90;99.90;;;;;;4974027;28;20057;-59
2022/05/23 17:19:32;;;;;;;36.33;30.77;;;16.90;99.90;;;;;;4981694;28;20046;-58
2022/05/23 17:21:58;;;;;;;35.35;31.50;;;16.80;99.90;;;;;;4984429;28;20062;-59
2022/05/23 17:24:24;;;;;;;42.08;36.67;;;16.80;99.90;;;;;;4975369;28;20081;-58
2022/05/23 17:26:50;;;;;;;37.10;32.22;;;16.80;99.90;;;;;;4981460;28;20109;-57
2022/05/23 17:29:16;;;;;;;37.95;33.85;;;16.80;99.90;;;;;;4985124;28;20046;-58
2022/05/23 17:31:41;;;;;;;34.03;30.40;;;16.80;99.90;;;;;;4985609;28;20046;-58
2022/05/23 17:34:07;;;;;;;36.92;31.88;;;16.80;99.90;;;;;;4974554;28;20630;-58
2022/05/23 17:36:33;;;;;;;35.22;31.33;;;16.80;99.90;;;;;;4991615;28;20117;-58
2022/05/23 17:38:59;;;;;;;35.63;31.83;;;16.80;99.90;;;;;;4992627;28;20078;-58
2022/05/23 17:41:25;;;;;;;37.03;32.05;;;16.70;99.90;;;;;;4982075;28;20509;-58
2022/05/23 17:43:51;;;;;;;36.40;30.05;;;16.70;99.90;;;;;;4980326;28;20537;-58
2022/05/23 17:46:17;;;;;;;35.03;31.30;;;16.70;99.90;;;;;;4973665;28;20059;-58
2022/05/23 17:48:43;;;;;;;40.22;35.53;;;16.60;99.90;;;;;;4992782;28;20057;-58
2022/05/23 17:51:08;;;;;;;44.80;36.65;;;16.60;99.90;;;;;;4983214;28;20047;-58
2022/05/23 17:53:35;;;;;;;55.28;43.33;;;16.50;99.90;;;;;;4973004;28;20034;-57
2022/05/23 17:56:02;;;;;;;58.67;45.35;;;16.40;99.90;;;;;;4989016;28;20026;-58
2022/05/23 17:58:28;;;;;;;58.22;45.22;;;16.30;99.90;;;;;;4985616;28;20046;-58
2022/05/23 18:00:54;;;;;;;54.90;45.58;;;16.10;99.90;;;;;;4970329;28;20047;-58
2022/05/23 18:03:20;;;;;;;45.45;39.97;;;16.10;99.90;;;;;;4971124;28;20054;-57
2022/05/23 18:05:46;;;;;;;48.53;39.78;;;16.00;99.90;;;;;;4986753;28;20042;-58
2022/05/23 18:08:12;;;;;;;41.28;36.78;;;15.90;99.90;;;;;;4992685;28;20046;-57
2022/05/23 18:10:39;;;;;;;40.45;36.22;;;15.90;99.90;;;;;;4992604;28;20425;-57
2022/05/23 18:13:06;;;;;;;48.63;42.15;;;15.80;99.90;;;;;;4991753;28;20121;-58
2022/05/23 18:21:04;;;;;;;40.63;36.08;;;15.30;99.90;;;;;;4992333;28;19922;-57
2022/05/23 18:23:31;;;;;;;38.97;34.78;;;15.20;99.90;;;;;;4990926;28;20038;-56
2022/05/23 18:25:57;;;;;;;41.47;35.92;;;15.20;99.90;;;;;;4988216;28;20038;-58
2022/05/23 18:28:23;;;;;;;37.53;33.58;;;15.10;99.90;;;;;;4981153;28;20105;-56
2022/05/23 18:30:49;;;;;;;43.45;36.67;;;15.10;99.90;;;;;;4992257;28;20046;-58
2022/05/23 18:33:15;;;;;;;48.20;37.67;;;15.10;99.90;;;;;;4990515;28;20045;-58
2022/05/23 18:35:42;;;;;;;41.17;34.55;;;15.10;99.90;;;;;;4988050;28;20039;-59
2022/05/23 18:38:08;;;;;;;37.80;32.75;;;15.00;99.90;;;;;;4985265;28;20038;-58
2022/05/23 18:40:35;;;;;;;32.13;27.98;;;15.00;99.90;;;;;;4989935;28;20042;-59
2022/05/23 18:43:00;;;;;;;28.25;25.33;;;14.90;99.90;;;;;;4991381;28;20035;-58
2022/05/23 18:45:30;;;;;;;28.58;25.48;;;14.90;99.90;;;;;;4992231;28;20128;-58
2022/05/23 18:50:40;;;;;;;31.52;27.92;;;14.80;99.90;;;;;;4982911;28;20046;-57
2022/05/23 18:53:06;;;;;;;34.47;27.52;;;14.70;99.90;;;;;;4971930;28;20047;-58
2022/05/23 18:55:33;;;;;;;32.47;27.23;;;14.70;99.90;;;;;;4974345;28;20129;-58
2022/05/23 18:57:59;;;;;;;31.75;28.35;;;14.70;99.90;;;;;;4992002;28;20117;-59
2022/05/23 19:00:28;;;;;;;33.83;28.65;;;14.70;99.90;;;;;;4992054;28;20569;-58
2022/05/23 19:02:54;;;;;;;32.53;27.33;;;14.60;99.90;;;;;;4957951;28;20512;-59
2022/05/23 19:05:21;;;;;;;27.38;24.27;;;14.60;99.90;;;;;;4990363;28;20089;-59
2022/05/23 19:07:49;;;;;;;28.00;24.27;;;14.60;99.90;;;;;;4991936;28;20474;-58
2022/05/23 19:10:15;;;;;;;28.15;23.75;;;14.50;99.90;;;;;;4985487;28;20038;-59
2022/05/23 19:12:42;;;;;;;25.63;22.85;;;14.50;99.90;;;;;;4991810;28;20042;-58
2022/05/23 19:15:08;;;;;;;28.58;22.58;;;14.50;99.90;;;;;;4990380;28;20057;-58
2022/05/23 19:17:34;;;;;;;26.70;22.45;;;14.50;99.90;;;;;;4984593;28;20035;-59
2022/05/23 19:20:00;;;;;;;28.70;23.30;;;14.50;99.90;;;;;;4986272;28;20082;-55
2022/05/23 19:22:28;;;;;;;27.33;21.27;;;14.50;99.90;;;;;;4989458;28;20049;-56
2022/05/23 19:24:55;;;;;;;26.92;23.00;;;14.50;99.90;;;;;;4988810;28;20100;-57
2022/05/23 19:27:22;;;;;;;27.27;20.88;;;14.60;99.90;;;;;;4978262;28;20636;-58
2022/05/23 19:29:48;;;;;;;24.95;20.15;;;14.60;99.90;;;;;;4972788;28;20042;-58
2022/05/23 19:32:14;;;;;;;28.50;23.05;;;14.60;99.90;;;;;;4979384;28;20045;-58
2022/05/23 19:34:40;;;;;;;25.25;21.25;;;14.60;99.90;;;;;;4977135;28;20114;-57
2022/05/23 19:37:06;;;;;;;25.08;21.90;;;14.60;99.90;;;;;;4990421;28;20081;-59
2022/05/23 19:39:38;;;;;;;26.75;22.73;;;14.50;99.90;;;;;;4971558;28;20222;-59
2022/05/23 19:42:15;;;;;;;30.55;23.92;;;14.50;99.90;;;;;;4982887;28;20049;-59
2022/05/23 19:44:41;;;;;;;28.55;21.00;;;14.40;99.90;;;;;;4979694;28;20058;-58
2022/05/23 19:47:07;;;;;;;32.83;25.13;;;14.40;99.90;;;;;;4971456;28;20410;-59
2022/05/23 19:49:33;;;;;;;30.17;24.30;;;14.50;99.90;;;;;;4971875;28;20038;-59
2022/05/23 19:52:01;;;;;;;30.70;23.63;;;14.40;99.90;;;;;;4970639;28;20061;-58
2022/05/23 19:54:27;;;;;;;34.30;25.10;;;14.40;99.90;;;;;;4982910;28;20150;-58
2022/05/23 19:56:53;;;;;;;34.22;26.52;;;14.40;99.90;;;;;;4986135;28;20094;-57
2022/05/23 19:59:18;;;;;;;35.22;23.95;;;14.40;99.90;;;;;;5008972;28;20041;-57
2022/05/23 20:07:18;;;;;;;31.80;25.60;;;14.40;99.90;;;;;;4990432;28;20125;-59
2022/05/23 20:09:43;;;;;;;35.50;26.10;;;14.40;99.90;;;;;;4990349;28;20085;-59
2022/05/23 20:12:10;;;;;;;34.20;26.95;;;14.40;99.90;;;;;;4989884;28;20117;-57
2022/05/23 20:17:20;;;;;;;;;;;14.40;99.90;;;;;;4989667;28;20046;-58
2022/05/23 20:19:46;;;;;;;34.13;25.55;;;14.50;99.90;;;;;;4990325;28;19928;-59
2022/05/23 20:22:12;;;;;;;36.75;25.65;;;14.40;99.90;;;;;;4978599;28;20039;-59
2022/05/23 20:24:37;;;;;;;32.15;24.60;;;14.40;99.90;;;;;;4971195;28;20046;-58
2022/05/23 20:27:04;;;;;;;29.55;23.38;;;14.30;99.90;;;;;;4980858;28;20042;-58
2022/05/23 20:29:29;;;;;;;27.98;23.08;;;14.30;99.90;;;;;;4989994;28;20057;-59
2022/05/23 20:31:55;;;;;;;35.45;25.95;;;14.30;99.90;;;;;;4987248;28;20034;-59
2022/05/23 20:34:21;;;;;;;33.08;24.52;;;14.30;99.90;;;;;;4990111;28;20122;-59
2022/05/23 20:36:47;;;;;;;32.95;23.67;;;14.10;99.90;;;;;;4982738;28;20054;-58
2022/05/23 20:39:12;;;;;;;38.13;25.27;;;14.20;99.90;;;;;;4973600;28;20051;-58
2022/05/23 20:41:38;;;;;;;36.55;25.30;;;14.10;99.90;;;;;;4977836;28;20050;-59
2022/05/23 20:44:04;;;;;;;40.45;26.92;;;14.10;99.90;;;;;;4977762;28;20125;-59
2022/05/23 20:46:38;;;;;;;40.63;26.95;;;14.10;99.90;;;;;;4989934;28;20469;-59
2022/05/23 20:49:05;;;;;;;36.65;25.42;;;14.00;99.90;;;;;;5009161;28;20052;-59
2022/05/23 20:51:32;;;;;;;37.47;28.00;;;14.00;99.90;;;;;;5007927;28;20041;-58
2022/05/23 20:53:58;;;;;;;36.00;25.98;;;14.00;99.90;;;;;;4999610;28;20042;-59
2022/05/23 20:56:24;;;;;;;38.10;28.02;;;14.00;99.90;;;;;;4990260;28;20057;-59
2022/05/23 20:58:50;;;;;;;38.15;25.02;;;14.00;99.90;;;;;;4989938;28;20425;-58
2022/05/23 21:01:16;;;;;;;42.03;25.95;;;14.10;99.90;;;;;;4984367;28;20042;-59
2022/05/23 21:03:41;;;;;;;30.70;23.20;;;14.10;99.90;;;;;;4974337;28;20038;-59
2022/05/23 21:06:09;;;;;;;31.65;24.02;;;14.10;99.90;;;;;;4975898;28;20042;-59
2022/05/23 21:08:35;;;;;;;36.55;24.55;;;14.20;99.90;;;;;;4970803;28;20601;-59
2022/05/23 21:11:05;;;;;;;34.10;24.02;;;14.20;99.90;;;;;;4972018;28;20038;-57
2022/05/23 21:13:31;;;;;;;32.15;23.27;;;14.10;99.90;;;;;;4960105;28;20038;-58
2022/05/23 21:15:57;;;;;;;31.20;22.77;;;14.10;99.90;;;;;;4969315;28;20494;-57
2022/05/23 21:18:22;;;;;;;38.25;24.35;;;14.20;99.90;;;;;;4971161;28;20041;-59
2022/05/23 21:20:48;;;;;;;36.97;22.60;;;14.20;99.90;;;;;;4967906;28;20499;-59
2022/05/23 21:23:14;;;;;;;35.28;21.33;;;14.10;99.90;;;;;;4974550;28;20046;-58
2022/05/23 21:25:40;;;;;;;37.88;23.98;;;14.10;99.90;;;;;;4968714;28;20072;-59
2022/05/23 21:28:10;;;;;;;34.65;21.75;;;14.10;99.90;;;;;;4971143;28;20568;-58
2022/05/23 21:30:37;;;;;;;33.90;21.50;;;14.10;99.90;;;;;;4969105;28;20050;-58
2022/05/23 21:33:05;;;;;;;31.70;20.83;;;14.10;99.90;;;;;;4997486;28;20041;-57
2022/05/23 21:35:31;;;;;;;36.90;23.10;;;14.10;99.90;;;;;;4991958;28;20076;-59
2022/05/23 21:38:01;;;;;;;34.28;22.20;;;14.10;99.90;;;;;;4983216;28;20405;-58
2022/05/23 21:46:29;;;;;;;;;;;14.00;99.90;;;;;;4983001;28;20084;-60
2022/05/23 21:48:55;;;;;;;30.73;19.42;;;13.90;99.90;;;;;;4986350;28;19990;-58
2022/05/23 21:51:21;;;;;;;30.13;18.00;;;13.90;99.90;;;;;;4949200;28;20046;-59
2022/05/23 21:53:47;;;;;;;27.92;16.75;;;14.00;99.90;;;;;;4976332;28;20433;-59
2022/05/23 21:56:13;;;;;;;22.77;16.45;;;14.00;99.90;;;;;;4968590;28;20088;-59
2022/05/23 21:58:39;;;;;;;23.02;12.05;;;14.10;99.90;;;;;;4969663;28;20908;-59
2022/05/23 22:03:49;;;;;;;;;;;14.00;99.90;;;;;;4976996;28;20276;-59
2022/05/23 22:06:18;;;;;;;15.40;7.18;;;13.90;99.90;;;;;;4967900;28;20331;-60
2022/05/23 22:08:45;;;;;;;10.65;5.82;;;13.90;99.90;;;;;;4966326;28;20047;-58
2022/05/23 22:11:11;;;;;;;10.10;5.75;;;14.00;99.90;;;;;;4966243;28;20030;-59
2022/05/23 22:13:37;;;;;;;10.43;5.93;;;13.90;99.90;;;;;;4969707;28;20334;-60
2022/05/23 22:16:03;;;;;;;9.98;6.40;;;14.00;99.90;;;;;;4974449;28;20027;-59
2022/05/23 22:18:29;;;;;;;10.88;6.35;;;14.00;99.90;;;;;;4974410;23;20756;-58
2022/05/23 22:20:55;;;;;;;12.07;5.47;;;14.00;99.90;;;;;;4953991;28;20093;-55
2022/05/23 22:23:21;;;;;;;12.45;5.05;;;13.90;99.90;;;;;;4955365;28;20038;-57
2022/05/23 22:25:47;;;;;;;11.60;4.30;;;13.90;99.90;;;;;;4955995;28;20125;-58
2022/05/23 22:28:12;;;;;;;9.40;4.53;;;14.00;99.90;;;;;;4955499;28;20137;-57
2022/05/23 22:30:38;;;;;;;8.77;4.68;;;14.00;99.90;;;;;;4952609;28;20038;-60
2022/05/23 22:33:04;;;;;;;10.27;3.88;;;13.90;99.90;;;;;;4953479;28;20077;-57
2022/05/23 22:35:30;;;;;;;12.63;4.85;;;14.00;99.90;;;;;;4951386;28;20088;-58